map of ADL home
ADL - Airport
Location
City:  Adelaide, South Australia, Australia
Name:Adelaide International Airport
ICAO:YPAD
IATA:ADL

Details
Type:Airport (Aerodrome, Airfield)
Use:Public/Civil, International (customs port of entry)
Latitude:3456'42"S (-34.944999)
Longitude:13831'50"E (138.530556)
Datum:WGS 1984
Elevation:20 ft (6 m)
Variation:7.92E (WMM2015 magnetic declination)
-0.01 annual change
Runways:2
Longest:10171 × 148 ft (3100 × 45 m), paved

Time
Time Zone:UTC+9:30 (DST+10:30)
Local Time:

Weather
METAR:YPAD 251700Z 08007KT CAVOK 06/01 Q1031 NOSIG
TAF:YPAD 251114Z 2512/2618 10006KT 9999 SCT035

Related Locations
Nearby:
Farthest:FLW: 11791 mi / 18976 km
Flores Island [Santa Cruz], 20, PT

Find:

   beyond  
but within

Other Information
Maps:
NOTAMs:
Links:
Sources:

  
  • flag of Australia
  • flag of South Australia
  

Airport Diagram

Airport diagram for ADL

Larger airport diagram (OBSOLETE) from NGA

Sectional Chart

Flight Planning
at skyvector.com

Satellite Image

Google Maps Satellite view

 

Copyright © 2004-2018 Karl L. Swartz. All rights reserved.
The Great Circle Mapper name and logo are trademarks of the Great Circle Mapper.
All other trademarks mentioned herein belong to their respective owners.
Please see credits for attibutions and further copyright information.

  Follow gcmap on Facebook Follow gcmap on Twitter Follow gcmap on Google+ GCmap on LinkedIn

hCard Microformat

Geo Microformat